Time;durP1;ratioP1;P1;durP2;ratioP2;P2;SDS_P1;SDS_P2;PMS_P1;PMS_P2;Temp;Humidity;BMP_temperature;BMP_pressure;BME280_temperature;BME280_humidity;BME280_pressure;Samples;Min_cycle;Max_cycle;Signal;HPM_P1;HPM_P2
2022/05/17 00:00:52;;;;;;;;;;;;;;;15.02;100.00;99114.59;5075254;28;20043;-81
2022/05/17 00:03:19;;;;;;;;;;;;;;;14.93;100.00;99112.47;5076154;28;19967;-81
2022/05/17 00:05:46;;;;;;;;;;;;;;;13.63;100.00;99121.22;5075282;28;19925;-81
2022/05/17 00:08:14;;;;;;;;;;;;;;;13.75;100.00;99123.28;5058492;28;19952;-81
2022/05/17 00:10:41;;;;;;;;;;;;;;;13.23;100.00;99119.88;5074789;28;19930;-81
2022/05/17 00:13:08;;;;;;;;;;;;;;;14.08;100.00;99119.13;5074915;28;19936;-81
2022/05/17 00:15:38;;;;;;;;;;;;;;;14.02;100.00;99118.09;5075353;28;20310;-81
2022/05/17 00:18:05;;;;;;;;;;;;;;;14.35;100.00;99105.50;5076072;28;19935;-81
2022/05/17 00:20:33;;;;;;;;;;;;;;;14.14;100.00;99111.72;5058052;28;19925;-81
2022/05/17 00:23:07;;;;;;;;;;;;;;;14.46;100.00;99105.97;5057697;28;19970;-81
2022/05/17 00:25:59;;;;;;;;;;;;;;;13.81;100.00;99097.00;5044624;28;19924;-81
2022/05/17 00:28:26;;;;;;;;;;;;;;;14.19;100.00;99094.31;5074474;28;19974;-81
2022/05/17 00:30:53;;;;;;;;;;;;;;;14.49;100.00;99110.69;5058341;28;20015;-81
2022/05/17 00:33:22;;;;;;;;;;;;;;;14.61;100.00;99101.47;5075907;28;19970;-82
2022/05/17 00:35:50;;;;;;;;;;;;;;;14.62;100.00;99103.03;5074424;28;19924;-82
2022/05/17 00:38:17;;;;;;;;;;;;;;;13.93;100.00;99109.53;5058055;28;19924;-82
2022/05/17 00:40:44;;;;;;;;;;;;;;;13.69;100.00;99099.78;5074616;28;19963;-81
2022/05/17 00:43:14;;;;;;;;;;;;;;;13.69;100.00;99096.97;5057636;28;19931;-81
2022/05/17 00:45:47;;;;;;;;;;;;;;;14.13;100.00;99105.31;5074283;28;19931;-81
2022/05/17 00:48:15;;;;;;;;;;;;;;;13.78;100.00;99105.56;5058232;28;20065;-81
2022/05/17 00:50:53;;;;;;;;;;;;;;;14.03;100.00;99106.41;5074786;28;19925;-81
2022/05/17 00:53:22;;;;;;;;;;;;;;;14.18;100.00;99106.78;5075307;28;19925;-81
2022/05/17 00:55:56;;;;;;;;;;;;;;;14.35;100.00;99099.88;5057733;28;19974;-81
2022/05/17 00:58:30;;;;;;;;;;;;;;;14.54;100.00;99100.91;5074336;28;19925;-81
2022/05/17 01:00:57;;;;;;;;;;;;;;;14.53;100.00;99108.53;5057249;28;19982;-82
2022/05/17 01:03:25;;;;;;;;;;;;;;;13.38;100.00;99098.63;5057481;28;19931;-82
2022/05/17 01:05:54;;;;;;;;;;;;;;;13.69;100.00;99102.59;5057244;28;19924;-82
2022/05/17 01:08:21;;;;;;;;;;;;;;;14.13;100.00;99105.31;5057139;28;19924;-82
2022/05/17 01:10:48;;;;;;;;;;;;;;;13.94;100.00;99103.47;5056864;28;20401;-81
2022/05/17 01:16:03;;;;;;;;;;;;;;;13.89;100.00;99095.56;5074092;28;19924;-82
2022/05/17 01:18:34;;;;;;;;;;;;;;;14.07;100.00;99095.84;5073977;28;20462;-81
2022/05/17 01:21:02;;;;;;;;;;;;;;;14.11;100.00;99095.75;5074986;28;20322;-81
2022/05/17 01:23:30;;;;;;;;;;;;;;;14.24;100.00;99096.59;5073350;28;20011;-81
2022/05/17 01:25:57;;;;;;;;;;;;;;;14.30;100.00;99100.41;5073492;28;20027;-81
2022/05/17 01:28:26;;;;;;;;;;;;;;;13.42;100.00;99093.72;5074606;28;19928;-80
2022/05/17 01:30:54;;;;;;;;;;;;;;;12.93;100.00;99103.38;5073332;28;19925;-80
2022/05/17 01:33:22;;;;;;;;;;;;;;;13.49;100.00;99099.94;5056913;28;19928;-80
2022/05/17 01:35:49;;;;;;;;;;;;;;;13.75;100.00;99095.22;5073319;28;19925;-80
2022/05/17 01:38:16;;;;;;;;;;;;;;;13.89;100.00;99094.78;5073311;28;19929;-80
2022/05/17 01:40:43;;;;;;;;;;;;;;;13.66;100.00;99095.06;5073617;28;20023;-80
2022/05/17 01:43:10;;;;;;;;;;;;;;;13.81;100.00;99088.56;5074411;28;19931;-80
2022/05/17 01:45:37;;;;;;;;;;;;;;;13.16;100.00;99097.63;5073259;28;19931;-80
2022/05/17 01:48:04;;;;;;;;;;;;;;;12.58;100.00;99093.81;5073265;28;19931;-80
2022/05/17 01:50:31;;;;;;;;;;;;;;;13.08;100.00;99096.22;5073187;28;19925;-80
2022/05/17 01:52:58;;;;;;;;;;;;;;;13.37;100.00;99103.47;5073295;28;19932;-80
2022/05/17 01:55:26;;;;;;;;;;;;;;;13.18;100.00;99101.53;5073269;28;19935;-80
2022/05/17 01:57:53;;;;;;;;;;;;;;;13.37;100.00;99099.88;5073189;28;19928;-81
2022/05/17 02:00:23;;;;;;;;;;;;;;;13.52;100.00;99103.88;5073333;28;20027;-81
2022/05/17 02:02:51;;;;;;;;;;;;;;;13.64;100.00;99100.31;5073178;28;20348;-81
2022/05/17 02:05:19;;;;;;;;;;;;;;;12.73;100.00;99104.25;5072662;28;20395;-81
2022/05/17 02:07:46;;;;;;;;;;;;;;;12.24;100.00;99099.78;5073945;28;19963;-81
2022/05/17 02:10:14;;;;;;;;;;;;;;;12.36;100.00;99101.09;5074056;28;20379;-81
2022/05/17 02:12:41;;;;;;;;;;;;;;;12.54;100.00;99093.88;5072622;28;20011;-81
2022/05/17 02:15:09;;;;;;;;;;;;;;;11.73;100.00;99091.28;5073543;28;19975;-81
2022/05/17 02:17:38;;;;;;;;;;;;;;;12.59;100.00;99098.97;5056922;28;19924;-81
2022/05/17 02:20:07;;;;;;;;;;;;;;;12.77;100.00;99099.34;5072711;28;19954;-81
2022/05/17 02:22:34;;;;;;;;;;;;;;;13.05;100.00;99102.69;5073699;28;19931;-81
2022/05/17 02:25:02;;;;;;;;;;;;;;;12.75;100.00;99101.00;5072543;28;19974;-81
2022/05/17 02:27:29;;;;;;;;;;;;;;;12.89;100.00;99102.69;5072700;28;19925;-81
2022/05/17 02:29:56;;;;;;;;;;;;;;;11.87;100.00;99103.00;5074776;28;19928;-81
2022/05/17 02:32:23;;;;;;;;;;;;;;;12.26;100.00;99108.53;5056027;28;19932;-81
2022/05/17 02:34:50;;;;;;;;;;;;;;;12.10;100.00;99111.28;5074009;28;19924;-81
2022/05/17 02:37:17;;;;;;;;;;;;;;;12.53;100.00;99097.91;5073775;28;19932;-81
2022/05/17 02:39:47;;;;;;;;;;;;;;;11.95;100.00;99101.59;5074191;28;19970;-81
2022/05/17 02:42:14;;;;;;;;;;;;;;;12.14;100.00;99100.81;5072503;28;19931;-81
2022/05/17 02:44:41;;;;;;;;;;;;;;;11.83;100.00;99110.66;5076692;28;19948;-81
2022/05/17 02:47:09;;;;;;;;;;;;;;;12.36;100.00;99107.50;5077089;28;19924;-80
2022/05/17 02:49:40;;;;;;;;;;;;;;;12.34;100.00;99115.56;5060503;28;19974;-81
2022/05/17 02:52:07;;;;;;;;;;;;;;;12.49;100.00;99111.22;5076714;28;20007;-81
2022/05/17 02:54:34;;;;;;;;;;;;;;;12.00;100.00;99106.72;5076359;28;19931;-81
2022/05/17 02:57:01;;;;;;;;;;;;;;;11.32;100.00;99111.22;5077277;28;19925;-81
2022/05/17 02:59:29;;;;;;;;;;;;;;;11.83;100.00;99113.44;5076187;28;20023;-81
2022/05/17 03:01:56;;;;;;;;;;;;;;;11.84;100.00;99106.66;5076961;28;19960;-81
2022/05/17 03:04:23;;;;;;;;;;;;;;;11.79;100.00;99109.94;5077779;28;20269;-81
2022/05/17 03:06:51;;;;;;;;;;;;;;;11.69;100.00;99110.94;5076017;28;19946;-81
2022/05/17 03:09:18;;;;;;;;;;;;;;;12.17;100.00;99115.94;5076163;28;19924;-81
2022/05/17 03:11:50;;;;;;;;;;;;;;;12.36;100.00;99101.91;5059203;28;19925;-81
2022/05/17 03:14:50;;;;;;;;;;;;;;;11.17;100.00;99104.31;5077556;28;19940;-81
2022/05/17 03:17:38;;;;;;;;;;;;;;;11.70;100.00;99114.53;5077096;28;19925;-81
2022/05/17 03:20:05;;;;;;;;;;;;;;;12.02;100.00;99112.69;5077229;28;19924;-81
2022/05/17 03:22:33;;;;;;;;;;;;;;;12.15;100.00;99102.38;5075564;28;19931;-81
2022/05/17 03:25:03;;;;;;;;;;;;;;;12.35;100.00;99100.34;5076912;28;19924;-81
2022/05/17 03:27:49;;;;;;;;;;;;;;;12.58;100.00;99094.59;5077356;28;20363;-81
2022/05/17 03:30:17;;;;;;;;;;;;;;;12.30;100.00;99103.66;5059257;28;19928;-81
2022/05/17 03:32:44;;;;;;;;;;;;;;;11.96;100.00;99100.41;5076355;28;19928;-81
2022/05/17 03:35:12;;;;;;;;;;;;;;;11.57;100.00;99105.94;5075628;28;19931;-80
2022/05/17 03:37:39;;;;;;;;;;;;;;;12.05;100.00;99099.81;5075581;28;20346;-80
2022/05/17 03:40:09;;;;;;;;;;;;;;;11.62;100.00;99105.47;5075284;28;19924;-80
2022/05/17 03:42:37;;;;;;;;;;;;;;;12.06;100.00;99107.78;5077120;28;20584;-81
2022/05/17 03:45:04;;;;;;;;;;;;;;;12.32;100.00;99109.63;5075818;28;19925;-81
2022/05/17 03:47:31;;;;;;;;;;;;;;;12.44;100.00;99099.72;5059504;28;19963;-81
2022/05/17 03:49:59;;;;;;;;;;;;;;;12.48;100.00;99098.44;5075366;28;19924;-81
2022/05/17 03:52:27;;;;;;;;;;;;;;;12.64;100.00;99100.47;5059037;28;19928;-81
2022/05/17 03:54:56;;;;;;;;;;;;;;;12.61;100.00;99101.34;5074735;28;19925;-81
2022/05/17 03:57:24;;;;;;;;;;;;;;;12.44;100.00;99111.75;5058640;28;20410;-81
2022/05/17 03:59:51;;;;;;;;;;;;;;;12.28;100.00;99113.72;5076645;28;20402;-81
2022/05/17 04:02:23;;;;;;;;;;;;;;;12.65;100.00;99114.06;5075518;28;20383;-81
2022/05/17 04:04:51;;;;;;;;;;;;;;;12.77;100.00;99109.75;5075624;28;19924;-81
2022/05/17 04:07:18;;;;;;;;;;;;;;;12.99;100.00;99115.66;5075780;28;20381;-80
2022/05/17 04:09:45;;;;;;;;;;;;;;;13.18;100.00;99123.19;5076154;28;19931;-80
2022/05/17 04:12:12;;;;;;;;;;;;;;;13.11;100.00;99117.78;5075134;28;19924;-80
2022/05/17 04:14:40;;;;;;;;;;;;;;;13.30;100.00;99125.31;5076609;28;19928;-80
2022/05/17 04:17:07;;;;;;;;;;;;;;;13.59;100.00;99126.13;5076076;28;19924;-81
2022/05/17 04:19:35;;;;;;;;;;;;;;;13.83;100.00;99121.84;5075268;28;20484;-80
2022/05/17 04:22:05;;;;;;;;;;;;;;;13.82;100.00;99120.28;5076082;28;19948;-80
2022/05/17 04:24:32;;;;;;;;;;;;;;;14.07;100.00;99128.78;5074402;28;20272;-80
2022/05/17 04:26:59;;;;;;;;;;;;;;;14.02;100.00;99121.69;5075169;28;20023;-80
2022/05/17 04:29:26;;;;;;;;;;;;;;;13.83;100.00;99119.81;5075248;28;19956;-80
2022/05/17 04:31:53;;;;;;;;;;;;;;;14.25;100.00;99126.28;5074826;28;20445;-80
2022/05/17 04:34:21;;;;;;;;;;;;;;;14.39;100.00;99120.22;5074934;28;19929;-81
2022/05/17 04:37:13;;;;;;;;;;;;;;;14.58;100.00;99127.66;5058283;28;20338;-81
2022/05/17 04:39:40;;;;;;;;;;;;;;;14.43;100.00;99123.72;5074751;28;19940;-81
2022/05/17 04:42:08;;;;;;;;;;;;;;;14.60;100.00;99121.59;5076013;28;19970;-81
2022/05/17 04:44:35;;;;;;;;;;;;;;;14.71;100.00;99127.69;5058080;28;20039;-81
2022/05/17 04:47:03;;;;;;;;;;;;;;;14.70;100.00;99120.47;5075578;28;20031;-81
2022/05/17 04:49:31;;;;;;;;;;;;;;;14.59;100.00;99126.44;5107750;28;20010;-81
2022/05/17 04:52:06;;;;;;;;;;;;;;;14.84;100.00;99126.44;5057426;28;19970;-81
2022/05/17 04:54:51;;;;;;;;;;;;;;;14.75;100.00;99129.16;5057801;28;19924;-81
2022/05/17 04:57:20;;;;;;;;;;;;;;;14.62;100.00;99131.16;5075333;28;19924;-81
2022/05/17 04:59:50;;;;;;;;;;;;;;;14.53;100.00;99128.22;5057874;28;19973;-81
2022/05/17 05:02:21;;;;;;;;;;;;;;;14.38;100.00;99127.06;5073896;28;19928;-81
2022/05/17 05:04:49;;;;;;;;;;;;;;;14.33;100.00;99125.63;5073792;28;19996;-81
2022/05/17 05:07:19;;;;;;;;;;;;;;;14.28;100.00;99123.34;5073283;28;20095;-81
2022/05/17 05:09:53;;;;;;;;;;;;;;;14.59;100.00;99125.63;5074106;28;20306;-81
2022/05/17 05:12:22;;;;;;;;;;;;;;;14.39;100.00;99125.84;5073702;28;19925;-81
2022/05/17 05:14:50;;;;;;;;;;;;;;;14.49;100.00;99128.31;5057597;28;19932;-81
2022/05/17 05:17:21;;;;;;;;;;;;;;;14.05;100.00;99126.44;5074632;28;19925;-81
2022/05/17 05:19:52;;;;;;;;;;;;;;;14.13;100.00;99127.00;5074812;28;19950;-81
2022/05/17 05:22:24;;;;;;;;;;;;;;;14.03;100.00;99136.53;5074273;28;19991;-81
2022/05/17 05:24:54;;;;;;;;;;;;;;;14.02;100.00;99134.94;5074086;28;19928;-81
2022/05/17 05:27:26;;;;;;;;;;;;;;;14.22;100.00;99138.38;5074001;28;19925;-81
2022/05/17 05:29:57;;;;;;;;;;;;;;;14.06;100.00;99138.44;5074889;28;19929;-81
2022/05/17 05:32:27;;;;;;;;;;;;;;;14.37;100.00;99136.75;5057492;28;19925;-81
2022/05/17 05:34:57;;;;;;;;;;;;;;;14.72;100.00;99135.69;5073764;28;19924;-81
2022/05/17 05:37:27;;;;;;;;;;;;;;;15.04;100.00;99143.84;5073349;28;19959;-81
2022/05/17 05:40:00;;;;;;;;;;;;;;;15.15;100.00;99141.50;5073267;28;19963;-81
2022/05/17 05:42:33;;;;;;;;;;;;;;;15.19;100.00;99139.34;5057193;28;19974;-81
2022/05/17 05:45:04;;;;;;;;;;;;;;;15.27;100.00;99149.13;5072877;28;19970;-81
2022/05/17 05:47:35;;;;;;;;;;;;;;;15.53;100.00;99147.88;5074435;28;20020;-81
2022/05/17 05:50:05;;;;;;;;;;;;;;;15.24;100.00;99147.22;5073090;28;20015;-82
2022/05/17 05:52:35;;;;;;;;;;;;;;;15.32;100.00;99162.63;5050305;28;20027;-85
2022/05/17 05:55:06;;;;;;;;;;;;;;;14.87;100.00;99156.50;5053491;28;19929;-82
2022/05/17 05:57:38;;;;;;;;;;;;;;;15.13;100.00;99155.22;5070289;28;20292;-85
2022/05/17 06:00:08;;;;;;;;;;;;;;;15.30;100.00;99150.25;5071961;28;20015;-85
2022/05/17 06:02:41;;;;;;;;;;;;;;;15.44;100.00;99159.03;5103440;28;19931;-88
2022/05/17 06:05:12;;;;;;;;;;;;;;;15.83;100.00;99152.81;5071789;28;20525;-86
2022/05/17 06:07:41;;;;;;;;;;;;;;;16.20;100.00;99160.34;5053913;28;19925;-84
2022/05/17 06:10:11;;;;;;;;;;;;;;;16.07;100.00;99155.97;5054006;28;19935;-85
2022/05/17 06:12:41;;;;;;;;;;;;;;;16.21;100.00;99150.63;5070565;28;19948;-85
2022/05/17 06:15:16;;;;;;;;;;;;;;;16.70;100.00;99144.34;5070334;28;19925;-83
2022/05/17 06:17:51;;;;;;;;;;;;;;;17.03;100.00;99145.44;5053058;28;20345;-83
2022/05/17 06:20:22;;;;;;;;;;;;;;;17.42;100.00;99150.25;5085248;28;19931;-84
2022/05/17 06:22:51;;;;;;;;;;;;;;;17.72;100.00;99143.75;5069883;28;19924;-83
2022/05/17 06:25:22;;;;;;;;;;;;;;;17.95;100.00;99129.78;5069672;28;19924;-82
2022/05/17 06:27:51;;;;;;;;;;;;;;;18.10;100.00;99134.81;5069781;28;19924;-83
2022/05/17 06:30:20;;;;;;;;;;;;;;;18.00;100.00;99134.03;5053194;28;19924;-84
2022/05/17 06:32:53;;;;;;;;;;;;;;;17.44;100.00;99128.81;5069725;28;19932;-83
2022/05/17 06:35:21;;;;;;;;;;;;;;;18.37;100.00;99141.25;5103459;28;19925;-83
2022/05/17 06:37:52;;;;;;;;;;;;;;;18.40;100.00;99137.47;5069806;28;19928;-83
2022/05/17 06:40:23;;;;;;;;;;;;;;;18.76;100.00;99148.69;5069477;28;19978;-81
2022/05/17 06:42:51;;;;;;;;;;;;;;;19.04;100.00;99138.03;5071089;28;19931;-82
2022/05/17 06:45:21;;;;;;;;;;;;;;;18.90;100.00;99133.84;5055786;28;19932;-82
2022/05/17 06:47:49;;;;;;;;;;;;;;;19.46;100.00;99133.13;5072742;28;19924;-80
2022/05/17 06:50:17;;;;;;;;;;;;;;;19.44;100.00;99135.66;5066916;28;20391;-80
2022/05/17 06:52:47;;;;;;;;;;;;;;;20.22;100.00;99149.41;5069808;28;19942;-79
2022/05/17 06:55:17;;;;;;;;;;;;;;;20.34;100.00;99137.00;5070162;28;19936;-79
2022/05/17 06:57:50;;;;;;;;;;;;;;;21.30;100.00;99137.63;5054702;28;20020;-79
2022/05/17 07:00:19;;;;;;;;;;;;;;;22.30;100.00;99139.72;5071680;28;19929;-80
2022/05/17 07:02:50;;;;;;;;;;;;;;;22.56;100.00;99139.75;5054998;28;19924;-79
2022/05/17 07:05:19;;;;;;;;;;;;;;;22.43;100.00;99134.41;5054758;28;19924;-79
2022/05/17 07:07:46;;;;;;;;;;;;;;;23.09;100.00;99143.59;5073264;28;19924;-80
2022/05/17 07:13:10;;;;;;;;;;;;;;;23.83;100.00;99115.78;5071980;28;19932;-81
2022/05/17 07:15:38;;;;;;;;;;;;;;;23.17;100.00;99120.31;5072527;28;19931;-80
2022/05/17 07:18:09;;;;;;;;;;;;;;;24.06;100.00;99125.25;5072077;28;20318;-82
2022/05/17 07:20:39;;;;;;;;;;;;;;;24.29;100.00;99106.88;5073303;28;19948;-80
2022/05/17 07:23:10;;;;;;;;;;;;;;;24.34;100.00;99114.69;5065352;28;20420;-77
2022/05/17 07:25:46;;;;;;;;;;;;;;;24.89;100.00;99116.84;5065789;28;20019;-78
2022/05/17 07:28:17;;;;;;;;;;;;;;;24.83;100.00;99105.41;5068989;28;19973;-78
2022/05/17 07:30:46;;;;;;;;;;;;;;;24.19;100.00;99096.97;5071263;28;19952;-78
2022/05/17 07:33:20;;;;;;;;;;;;;;;24.26;100.00;99103.00;5072687;28;19975;-77
2022/05/17 07:35:56;;;;;;;;;;;;;;;22.99;100.00;99121.50;5072679;28;19951;-77
2022/05/17 07:38:24;;;;;;;;;;;;;;;23.24;100.00;99119.81;5071166;28;19925;-77
2022/05/17 07:40:57;;;;;;;;;;;;;;;22.29;100.00;99131.66;5071763;28;20011;-79
2022/05/17 07:43:27;;;;;;;;;;;;;;;22.41;100.00;99134.13;5088296;28;20048;-78
2022/05/17 07:46:01;;;;;;;;;;;;;;;22.08;100.00;99148.00;5071792;28;19925;-84
2022/05/17 07:48:34;;;;;;;;;;;;;;;20.60;100.00;99135.16;5055946;28;19929;-80
2022/05/17 07:51:06;;;;;;;;;;;;;;;19.23;100.00;99148.81;5056117;28;19924;-81
2022/05/17 07:53:41;;;;;;;;;;;;;;;19.58;100.00;99157.59;5072331;28;20023;-77
2022/05/17 07:56:10;;;;;;;;;;;;;;;20.30;100.00;99154.22;5070432;28;19925;-77
2022/05/17 07:58:39;;;;;;;;;;;;;;;20.03;100.00;99148.75;5053342;28;19925;-77
2022/05/17 08:01:08;;;;;;;;;;;;;;;20.71;100.00;99152.38;5069903;28;19928;-78
2022/05/17 08:03:37;;;;;;;;;;;;;;;21.72;100.00;99154.22;5069319;28;20385;-78
2022/05/17 08:06:05;;;;;;;;;;;;;;;23.17;100.00;99144.66;5069355;28;19958;-79
2022/05/17 08:08:34;;;;;;;;;;;;;;;22.51;100.00;99149.78;5071253;28;19928;-80
2022/05/17 08:11:03;;;;;;;;;;;;;;;21.82;100.00;99150.00;5069259;28;19924;-78
2022/05/17 08:13:32;;;;;;;;;;;;;;;23.87;100.00;99144.84;5070223;28;19924;-78
2022/05/17 08:16:09;;;;;;;;;;;;;;;23.75;100.00;99134.69;5070176;28;19928;-78
2022/05/17 08:18:40;;;;;;;;;;;;;;;23.62;100.00;99140.06;5070868;28;19925;-81
2022/05/17 08:21:15;;;;;;;;;;;;;;;23.59;100.00;99129.69;5055153;28;19963;-81
2022/05/17 08:23:45;;;;;;;;;;;;;;;25.04;100.00;99141.00;5106375;28;19956;-81
2022/05/17 08:29:03;;;;;;;;;;;;;;;24.58;100.00;99130.03;5074413;28;20303;-81
2022/05/17 08:31:33;;;;;;;;;;;;;;;25.69;100.00;99127.91;5073691;28;19928;-81
2022/05/17 08:34:02;;;;;;;;;;;;;;;24.89;100.00;99120.47;5073572;28;20007;-81
2022/05/17 08:36:36;;;;;;;;;;;;;;;24.11;100.00;99119.53;5105707;28;19925;-81
2022/05/17 08:39:05;;;;;;;;;;;;;;;25.69;100.00;99142.22;5074549;28;19931;-81
2022/05/17 08:42:00;;;;;;;;;;;;;;;24.98;100.00;99123.06;5074695;28;19931;-83
2022/05/17 08:44:42;;;;;;;;;;;;;;;24.63;100.00;99119.91;5064972;28;19924;-77
2022/05/17 08:47:24;;;;;;;;;;;;;;;24.82;100.00;99123.88;5066226;28;19924;-78
2022/05/17 08:50:18;;;;;;;;;;;;;;;25.35;100.00;99123.59;5068046;28;19949;-78
2022/05/17 08:52:49;;;;;;;;;;;;;;;25.48;100.00;99103.78;5068706;28;19925;-78
2022/05/17 08:55:24;;;;;;;;;;;;;;;24.03;100.00;99117.72;5068985;28;20127;-77
2022/05/17 08:58:02;;;;;;;;;;;;;;;23.21;100.00;99121.63;5070253;28;19983;-82
2022/05/17 09:00:43;;;;;;;;;;;;;;;23.23;100.00;99123.97;5068485;28;19978;-77
2022/05/17 09:03:30;;;;;;;;;;;;;;;22.91;100.00;99121.16;5068458;28;19956;-77
2022/05/17 09:06:05;;;;;;;;;;;;;;;22.25;100.00;99131.88;5069612;28;20232;-77
2022/05/17 09:08:53;;;;;;;;;;;;;;;22.02;100.00;99123.59;5069953;28;19924;-77
2022/05/17 09:11:25;;;;;;;;;;;;;;;22.25;100.00;99140.41;5069067;28;19924;-77
2022/05/17 09:14:07;;;;;;;;;;;;;;;22.00;100.00;99148.91;5068209;28;20380;-76
2022/05/17 09:16:38;;;;;;;;;;;;;;;22.06;100.00;99141.22;5067425;28;20012;-77
2022/05/17 09:19:06;;;;;;;;;;;;;;;21.76;100.00;99137.78;5069653;28;19924;-76
2022/05/17 09:21:36;;;;;;;;;;;;;;;21.28;100.00;99136.56;5068535;28;19990;-76
2022/05/17 09:24:06;;;;;;;;;;;;;;;22.08;100.00;99133.78;5066953;28;19924;-77
2022/05/17 09:26:37;;;;;;;;;;;;;;;22.51;100.00;99129.84;5068960;28;20031;-76
2022/05/17 09:29:12;;;;;;;;;;;;;;;22.82;100.00;99124.22;5067900;28;20031;-76
2022/05/17 09:31:46;;;;;;;;;;;;;;;22.68;100.00;99127.97;5069473;28;20399;-76
2022/05/17 09:34:44;;;;;;;;;;;;;;;23.85;100.00;99115.28;5068759;28;19964;-76
2022/05/17 09:37:34;;;;;;;;;;;;;;;23.16;100.00;99118.75;5068706;28;20470;-76
2022/05/17 09:40:31;;;;;;;;;;;;;;;23.30;100.00;99114.97;5067916;28;19935;-76
2022/05/17 09:43:07;;;;;;;;;;;;;;;23.61;100.00;99118.56;5051064;28;20308;-87
2022/05/17 09:45:49;;;;;;;;;;;;;;;23.53;100.00;99119.53;5017753;28;19932;-83
2022/05/17 09:48:31;;;;;;;;;;;;;;;23.83;100.00;99097.88;5068516;28;20367;-83
2022/05/17 09:53:46;;;;;;;;;;;;;;;24.12;100.00;99097.50;5068304;28;19960;-85
2022/05/17 09:56:16;;;;;;;;;;;;;;;24.01;100.00;99086.03;5068252;28;19946;-78
2022/05/17 09:58:44;;;;;;;;;;;;;;;24.15;100.00;99096.47;5068592;28;19946;-79
2022/05/17 10:01:25;;;;;;;;;;;;;;;24.33;100.00;99091.06;5067832;28;19924;-78
2022/05/17 10:04:00;;;;;;;;;;;;;;;24.73;100.00;99086.97;5069130;28;19931;-78
2022/05/17 10:06:32;;;;;;;;;;;;;;;24.61;100.00;99083.28;5067772;28;19931;-78
2022/05/17 10:09:03;;;;;;;;;;;;;;;23.38;100.00;99073.31;5068340;28;20031;-77
2022/05/17 10:11:48;;;;;;;;;;;;;;;23.98;100.00;99075.66;5068038;28;19924;-78
2022/05/17 10:14:19;;;;;;;;;;;;;;;23.13;100.00;99069.22;5068252;28;19929;-77
2022/05/17 10:16:50;;;;;;;;;;;;;;;23.21;100.00;99070.31;5068010;28;19925;-78
2022/05/17 10:19:26;;;;;;;;;;;;;;;23.52;100.00;99072.34;5068042;28;19935;-78
2022/05/17 10:22:01;;;;;;;;;;;;;;;23.74;100.00;99066.72;5068155;28;19925;-77
2022/05/17 10:24:35;;;;;;;;;;;;;;;23.05;100.00;99057.53;5050415;28;19963;-80
2022/05/17 10:27:09;;;;;;;;;;;;;;;23.28;100.00;99061.31;5068616;28;19930;-79
2022/05/17 10:29:36;;;;;;;;;;;;;;;22.88;100.00;99065.19;5067528;28;19932;-79
2022/05/17 10:32:14;;;;;;;;;;;;;;;21.94;100.00;99057.84;5066703;28;20352;-79
2022/05/17 10:35:00;;;;;;;;;;;;;;;22.44;100.00;99059.13;5067151;28;19924;-78
2022/05/17 10:37:32;;;;;;;;;;;;;;;23.27;100.00;99039.03;5066857;28;20288;-76
2022/05/17 10:40:11;;;;;;;;;;;;;;;22.06;100.00;99045.28;5067366;28;19964;-75
2022/05/17 10:42:39;;;;;;;;;;;;;;;22.16;100.00;99049.53;5067620;28;19929;-75
2022/05/17 10:45:06;;;;;;;;;;;;;;;22.77;100.00;99047.22;5067868;28;19931;-76
2022/05/17 10:47:33;;;;;;;;;;;;;;;22.50;100.00;99031.50;5068512;28;19925;-75
2022/05/17 10:50:15;;;;;;;;;;;;;;;23.01;100.00;99022.00;5067656;28;19925;-75
2022/05/17 10:52:48;;;;;;;;;;;;;;;23.11;100.00;99021.28;5050272;28;20039;-75
2022/05/17 10:55:24;;;;;;;;;;;;;;;23.47;100.00;99018.91;5067417;28;20319;-78
2022/05/17 10:58:03;;;;;;;;;;;;;;;23.98;100.00;99018.59;5070552;28;19924;-77
2022/05/17 11:00:39;;;;;;;;;;;;;;;23.57;100.00;99021.03;5072605;28;19928;-76
2022/05/17 11:03:07;;;;;;;;;;;;;;;23.53;100.00;99011.94;5071443;28;19931;-76
2022/05/17 11:05:54;;;;;;;;;;;;;;;23.28;100.00;99018.56;5074280;28;19963;-75
2022/05/17 11:08:25;;;;;;;;;;;;;;;22.48;100.00;99019.81;5076340;28;19928;-75
2022/05/17 11:11:07;;;;;;;;;;;;;;;23.00;100.00;99009.84;5075164;28;19931;-79
2022/05/17 11:13:42;;;;;;;;;;;;;;;22.05;100.00;99017.34;5042295;28;19974;-78
2022/05/17 11:16:22;;;;;;;;;;;;;;;22.16;100.00;99021.06;5076312;28;20372;-78
2022/05/17 11:18:52;;;;;;;;;;;;;;;21.94;100.00;99018.00;5076070;28;19935;-78
2022/05/17 11:21:27;;;;;;;;;;;;;;;21.78;100.00;99018.59;5075031;28;20451;-78
2022/05/17 11:23:56;;;;;;;;;;;;;;;21.28;100.00;99017.22;5074672;28;19924;-80
2022/05/17 11:26:27;;;;;;;;;;;;;;;21.30;100.00;99021.13;5074841;28;19924;-79
2022/05/17 11:28:57;;;;;;;;;;;;;;;22.19;100.00;99022.91;5076041;28;19931;-78
2022/05/17 11:31:43;;;;;;;;;;;;;;;22.67;100.00;99020.25;5074705;28;20345;-81
2022/05/17 11:34:23;;;;;;;;;;;;;;;21.57;100.00;99028.41;5058021;28;19963;-79
2022/05/17 11:36:51;;;;;;;;;;;;;;;21.91;100.00;99032.44;5075830;28;19961;-78
2022/05/17 11:39:40;;;;;;;;;;;;;;;22.46;100.00;98993.13;5074453;28;19924;-78
2022/05/17 11:42:07;;;;;;;;;;;;;;;22.55;100.00;99012.91;5075984;28;19928;-78
2022/05/17 11:44:44;;;;;;;;;;;;;;;22.65;100.00;99009.34;5058147;28;19931;-79
2022/05/17 11:47:29;;;;;;;;;;;;;;;21.89;100.00;99003.72;5075572;28;20434;-78
2022/05/17 11:50:20;;;;;;;;;;;;;;;22.67;100.00;98997.47;5075823;28;20269;-79
2022/05/17 11:52:54;;;;;;;;;;;;;;;22.82;100.00;98998.88;5075417;28;20388;-78
2022/05/17 11:55:26;;;;;;;;;;;;;;;22.45;100.00;98995.19;5074497;28;19925;-79
2022/05/17 11:57:52;;;;;;;;;;;;;;;22.75;100.00;98987.94;5075600;28;19924;-79
2022/05/17 12:00:22;;;;;;;;;;;;;;;22.73;100.00;99001.88;5074194;28;19929;-78
2022/05/17 12:02:50;;;;;;;;;;;;;;;22.48;100.00;99002.72;5071710;28;19930;-78
2022/05/17 12:05:37;;;;;;;;;;;;;;;22.16;100.00;98992.59;5069438;28;19925;-78
2022/05/17 12:08:23;;;;;;;;;;;;;;;22.30;100.00;98996.59;5059196;28;20376;-78
2022/05/17 12:10:58;;;;;;;;;;;;;;;23.11;100.00;98992.81;5070747;28;20388;-80
2022/05/17 12:13:27;;;;;;;;;;;;;;;22.30;100.00;98988.84;5070676;28;20296;-78
2022/05/17 12:15:55;;;;;;;;;;;;;;;21.68;100.00;98991.59;5069555;28;20058;-79
2022/05/17 12:18:31;;;;;;;;;;;;;;;22.51;100.00;98978.97;5070011;28;20398;-79
2022/05/17 12:21:14;;;;;;;;;;;;;;;22.68;100.00;98993.31;5052042;28;19924;-79
2022/05/17 12:23:44;;;;;;;;;;;;;;;22.44;100.00;98978.63;5068383;28;20435;-79
2022/05/17 12:26:30;;;;;;;;;;;;;;;21.65;100.00;99003.97;5070700;28;20023;-79
2022/05/17 12:30:52;;;;;;;;;;;;;;;22.44;100.00;98982.25;5055815;28;20454;-79
2022/05/17 12:31:44;;;;;;;;;;;;;;;22.35;100.00;98976.75;5072790;28;19974;-79
2022/05/17 12:34:11;;;;;;;;;;;;;;;23.11;100.00;98970.00;5069025;28;19964;-80
2022/05/17 12:36:39;;;;;;;;;;;;;;;23.94;100.00;98986.66;5069374;28;20474;-80
2022/05/17 12:44:46;;;;;;;;;;;;;;;23.55;100.00;98980.06;5068925;28;19924;-80
2022/05/17 12:47:18;;;;;;;;;;;;;;;22.97;100.00;98955.94;5069221;28;19986;-80
2022/05/17 12:49:50;;;;;;;;;;;;;;;23.71;100.00;98965.06;5068099;28;19948;-81
2022/05/17 12:52:24;;;;;;;;;;;;;;;23.71;100.00;98960.16;5071073;28;19928;-80
2022/05/17 12:55:06;;;;;;;;;;;;;;;23.37;100.00;98957.72;5072276;28;19939;-81
2022/05/17 12:58:49;;;;;;;;;;;;;;;23.39;100.00;98953.03;5066925;28;19967;-80
2022/05/17 13:01:21;;;;;;;;;;;;;;;23.38;100.00;98954.34;5074174;28;19925;-80
2022/05/17 13:03:48;;;;;;;;;;;;;;;22.50;100.00;98940.41;5057258;28;20356;-80
2022/05/17 13:06:15;;;;;;;;;;;;;;;23.56;100.00;98958.81;5073856;28;20332;-80
2022/05/17 13:08:42;;;;;;;;;;;;;;;23.41;100.00;98950.47;5074370;28;19925;-80
2022/05/17 13:11:19;;;;;;;;;;;;;;;22.83;100.00;98956.91;5074178;28;20376;-80
2022/05/17 13:13:47;;;;;;;;;;;;;;;23.66;100.00;98952.34;5074241;28;19986;-80
2022/05/17 13:16:22;;;;;;;;;;;;;;;23.83;100.00;98946.66;5074175;28;19925;-81